sensor_id;sensor_type;location;lat;lon;timestamp;P1;durP1;ratioP1;P2;durP2;ratioP2
76107;SDS011;64834;52.516;10.528;2023-04-24T00:02:17;1.50;;;0.60;;
76107;SDS011;64834;52.516;10.528;2023-04-24T00:04:43;1.10;;;0.60;;
76107;SDS011;64834;52.516;10.528;2023-04-24T00:07:10;1.73;;;0.73;;
76107;SDS011;64834;52.516;10.528;2023-04-24T00:09:36;1.63;;;0.90;;
76107;SDS011;64834;52.516;10.528;2023-04-24T00:12:01;2.00;;;0.70;;
76107;SDS011;64834;52.516;10.528;2023-04-24T00:14:29;1.55;;;0.65;;
76107;SDS011;64834;52.516;10.528;2023-04-24T00:16:55;1.48;;;0.70;;
76107;SDS011;64834;52.516;10.528;2023-04-24T00:19:20;1.23;;;0.57;;
76107;SDS011;64834;52.516;10.528;2023-04-24T00:21:46;1.40;;;0.63;;
76107;SDS011;64834;52.516;10.528;2023-04-24T00:24:11;1.30;;;0.60;;
76107;SDS011;64834;52.516;10.528;2023-04-24T00:26:37;1.25;;;0.60;;
76107;SDS011;64834;52.516;10.528;2023-04-24T00:29:02;1.55;;;0.75;;
76107;SDS011;64834;52.516;10.528;2023-04-24T00:31:27;1.30;;;0.50;;
76107;SDS011;64834;52.516;10.528;2023-04-24T00:33:53;1.90;;;0.50;;
76107;SDS011;64834;52.516;10.528;2023-04-24T00:36:18;1.40;;;0.47;;
76107;SDS011;64834;52.516;10.528;2023-04-24T00:38:45;1.90;;;0.70;;
76107;SDS011;64834;52.516;10.528;2023-04-24T00:41:11;1.73;;;0.80;;
76107;SDS011;64834;52.516;10.528;2023-04-24T00:43:36;1.80;;;0.60;;
76107;SDS011;64834;52.516;10.528;2023-04-24T00:46:01;1.45;;;0.70;;
76107;SDS011;64834;52.516;10.528;2023-04-24T00:48:27;1.73;;;0.60;;
76107;SDS011;64834;52.516;10.528;2023-04-24T00:50:52;1.63;;;0.80;;
76107;SDS011;64834;52.516;10.528;2023-04-24T00:53:18;1.75;;;0.68;;
76107;SDS011;64834;52.516;10.528;2023-04-24T00:55:43;1.85;;;0.60;;
76107;SDS011;64834;52.516;10.528;2023-04-24T00:58:09;2.00;;;0.88;;
76107;SDS011;64834;52.516;10.528;2023-04-24T01:00:34;2.47;;;0.60;;
76107;SDS011;64834;52.516;10.528;2023-04-24T01:03:00;1.63;;;0.68;;
76107;SDS011;64834;52.516;10.528;2023-04-24T01:05:29;1.90;;;0.52;;
76107;SDS011;64834;52.516;10.528;2023-04-24T01:07:54;2.17;;;0.75;;
76107;SDS011;64834;52.516;10.528;2023-04-24T01:10:20;2.03;;;0.65;;
76107;SDS011;64834;52.516;10.528;2023-04-24T01:12:46;1.60;;;0.80;;
76107;SDS011;64834;52.516;10.528;2023-04-24T01:15:11;2.95;;;0.60;;
76107;SDS011;64834;52.516;10.528;2023-04-24T01:17:36;2.45;;;0.77;;
76107;SDS011;64834;52.516;10.528;2023-04-24T01:20:03;1.45;;;0.68;;
76107;SDS011;64834;52.516;10.528;2023-04-24T01:22:30;1.58;;;0.52;;
76107;SDS011;64834;52.516;10.528;2023-04-24T01:24:56;1.80;;;0.60;;
76107;SDS011;64834;52.516;10.528;2023-04-24T01:27:21;1.75;;;0.73;;
76107;SDS011;64834;52.516;10.528;2023-04-24T01:29:46;1.38;;;0.60;;
76107;SDS011;64834;52.516;10.528;2023-04-24T01:32:14;1.50;;;0.70;;
76107;SDS011;64834;52.516;10.528;2023-04-24T01:34:40;1.40;;;0.73;;
76107;SDS011;64834;52.516;10.528;2023-04-24T01:37:05;1.52;;;0.73;;
76107;SDS011;64834;52.516;10.528;2023-04-24T01:39:31;2.03;;;0.70;;
76107;SDS011;64834;52.516;10.528;2023-04-24T01:41:58;1.38;;;0.68;;
76107;SDS011;64834;52.516;10.528;2023-04-24T01:44:24;1.40;;;0.80;;
76107;SDS011;64834;52.516;10.528;2023-04-24T01:46:50;1.52;;;0.80;;
76107;SDS011;64834;52.516;10.528;2023-04-24T01:49:18;2.03;;;0.80;;
76107;SDS011;64834;52.516;10.528;2023-04-24T01:51:43;1.92;;;0.60;;
76107;SDS011;64834;52.516;10.528;2023-04-24T01:54:08;1.52;;;0.77;;
76107;SDS011;64834;52.516;10.528;2023-04-24T01:56:34;1.50;;;0.70;;
76107;SDS011;64834;52.516;10.528;2023-04-24T01:59:02;1.60;;;0.90;;
76107;SDS011;64834;52.516;10.528;2023-04-24T02:01:32;1.65;;;0.90;;
76107;SDS011;64834;52.516;10.528;2023-04-24T02:04:00;2.17;;;0.95;;
76107;SDS011;64834;52.516;10.528;2023-04-24T02:06:26;4.03;;;1.10;;
76107;SDS011;64834;52.516;10.528;2023-04-24T02:08:51;2.58;;;0.98;;
76107;SDS011;64834;52.516;10.528;2023-04-24T02:11:17;2.63;;;0.90;;
76107;SDS011;64834;52.516;10.528;2023-04-24T02:13:42;2.45;;;0.73;;
76107;SDS011;64834;52.516;10.528;2023-04-24T02:16:07;2.25;;;0.70;;
76107;SDS011;64834;52.516;10.528;2023-04-24T02:18:33;2.25;;;0.90;;
76107;SDS011;64834;52.516;10.528;2023-04-24T02:20:58;1.52;;;0.90;;
76107;SDS011;64834;52.516;10.528;2023-04-24T02:23:23;1.88;;;0.85;;
76107;SDS011;64834;52.516;10.528;2023-04-24T02:25:49;1.30;;;0.73;;
76107;SDS011;64834;52.516;10.528;2023-04-24T02:28:14;1.48;;;0.93;;
76107;SDS011;64834;52.516;10.528;2023-04-24T02:30:39;2.30;;;1.00;;
76107;SDS011;64834;52.516;10.528;2023-04-24T02:33:05;1.95;;;1.08;;
76107;SDS011;64834;52.516;10.528;2023-04-24T02:35:30;2.15;;;1.10;;
76107;SDS011;64834;52.516;10.528;2023-04-24T02:37:55;1.92;;;0.95;;
76107;SDS011;64834;52.516;10.528;2023-04-24T02:40:21;2.13;;;1.00;;
76107;SDS011;64834;52.516;10.528;2023-04-24T02:42:46;1.67;;;1.00;;
76107;SDS011;64834;52.516;10.528;2023-04-24T02:45:11;2.20;;;1.20;;
76107;SDS011;64834;52.516;10.528;2023-04-24T02:47:37;2.50;;;1.00;;
76107;SDS011;64834;52.516;10.528;2023-04-24T02:50:03;1.42;;;0.77;;
76107;SDS011;64834;52.516;10.528;2023-04-24T02:52:29;1.77;;;0.90;;
76107;SDS011;64834;52.516;10.528;2023-04-24T02:54:55;2.33;;;1.00;;
76107;SDS011;64834;52.516;10.528;2023-04-24T02:57:20;1.70;;;1.10;;
76107;SDS011;64834;52.516;10.528;2023-04-24T02:59:45;1.58;;;0.80;;
76107;SDS011;64834;52.516;10.528;2023-04-24T03:02:11;1.83;;;1.02;;
76107;SDS011;64834;52.516;10.528;2023-04-24T03:04:36;2.67;;;1.00;;
76107;SDS011;64834;52.516;10.528;2023-04-24T03:07:01;1.42;;;0.70;;
76107;SDS011;64834;52.516;10.528;2023-04-24T03:09:27;1.80;;;0.63;;
76107;SDS011;64834;52.516;10.528;2023-04-24T03:11:52;1.55;;;0.80;;
76107;SDS011;64834;52.516;10.528;2023-04-24T03:14:18;2.00;;;1.05;;
76107;SDS011;64834;52.516;10.528;2023-04-24T03:16:43;2.08;;;0.95;;
76107;SDS011;64834;52.516;10.528;2023-04-24T03:19:08;2.25;;;1.00;;
76107;SDS011;64834;52.516;10.528;2023-04-24T03:21:34;2.47;;;1.00;;
76107;SDS011;64834;52.516;10.528;2023-04-24T03:24:00;1.95;;;0.98;;
76107;SDS011;64834;52.516;10.528;2023-04-24T03:26:26;2.20;;;0.80;;
76107;SDS011;64834;52.516;10.528;2023-04-24T03:28:51;1.67;;;0.82;;
76107;SDS011;64834;52.516;10.528;2023-04-24T03:31:16;2.05;;;0.98;;
76107;SDS011;64834;52.516;10.528;2023-04-24T03:33:42;1.80;;;1.10;;
76107;SDS011;64834;52.516;10.528;2023-04-24T03:36:07;3.80;;;0.93;;
76107;SDS011;64834;52.516;10.528;2023-04-24T03:38:32;2.20;;;1.08;;
76107;SDS011;64834;52.516;10.528;2023-04-24T03:40:58;1.70;;;0.82;;
76107;SDS011;64834;52.516;10.528;2023-04-24T03:43:23;1.42;;;0.90;;
76107;SDS011;64834;52.516;10.528;2023-04-24T03:45:48;1.90;;;0.90;;
76107;SDS011;64834;52.516;10.528;2023-04-24T03:48:14;1.52;;;0.90;;
76107;SDS011;64834;52.516;10.528;2023-04-24T03:50:39;1.80;;;0.93;;
76107;SDS011;64834;52.516;10.528;2023-04-24T03:53:04;4.00;;;1.05;;
76107;SDS011;64834;52.516;10.528;2023-04-24T03:55:30;1.60;;;0.93;;
76107;SDS011;64834;52.516;10.528;2023-04-24T03:57:55;3.05;;;0.90;;
76107;SDS011;64834;52.516;10.528;2023-04-24T04:00:20;2.03;;;0.95;;
76107;SDS011;64834;52.516;10.528;2023-04-24T04:02:46;2.83;;;0.90;;
76107;SDS011;64834;52.516;10.528;2023-04-24T04:05:11;2.42;;;1.00;;
76107;SDS011;64834;52.516;10.528;2023-04-24T04:07:36;2.00;;;1.00;;
76107;SDS011;64834;52.516;10.528;2023-04-24T04:10:02;1.85;;;0.88;;
76107;SDS011;64834;52.516;10.528;2023-04-24T04:12:28;2.85;;;1.10;;
76107;SDS011;64834;52.516;10.528;2023-04-24T04:14:53;1.55;;;0.82;;
76107;SDS011;64834;52.516;10.528;2023-04-24T04:17:19;8.40;;;1.10;;
76107;SDS011;64834;52.516;10.528;2023-04-24T04:19:44;3.10;;;0.98;;
76107;SDS011;64834;52.516;10.528;2023-04-24T04:22:09;1.55;;;0.85;;
76107;SDS011;64834;52.516;10.528;2023-04-24T04:24:35;2.20;;;0.93;;
76107;SDS011;64834;52.516;10.528;2023-04-24T04:29:29;1.38;;;0.77;;
76107;SDS011;64834;52.516;10.528;2023-04-24T04:31:56;2.50;;;0.85;;
76107;SDS011;64834;52.516;10.528;2023-04-24T04:34:21;1.60;;;1.15;;
76107;SDS011;64834;52.516;10.528;2023-04-24T04:36:47;1.25;;;0.60;;
76107;SDS011;64834;52.516;10.528;2023-04-24T04:39:13;1.60;;;1.00;;
76107;SDS011;64834;52.516;10.528;2023-04-24T04:41:40;2.35;;;0.88;;
76107;SDS011;64834;52.516;10.528;2023-04-24T04:44:06;1.90;;;1.00;;
76107;SDS011;64834;52.516;10.528;2023-04-24T04:46:33;2.60;;;0.70;;
76107;SDS011;64834;52.516;10.528;2023-04-24T04:48:59;2.85;;;0.93;;
76107;SDS011;64834;52.516;10.528;2023-04-24T04:51:25;2.38;;;0.70;;
76107;SDS011;64834;52.516;10.528;2023-04-24T04:53:51;1.38;;;0.68;;
76107;SDS011;64834;52.516;10.528;2023-04-24T04:56:16;1.48;;;0.80;;
76107;SDS011;64834;52.516;10.528;2023-04-24T04:58:41;1.98;;;0.70;;
76107;SDS011;64834;52.516;10.528;2023-04-24T05:01:06;3.88;;;1.05;;
76107;SDS011;64834;52.516;10.528;2023-04-24T05:03:32;3.13;;;1.00;;
76107;SDS011;64834;52.516;10.528;2023-04-24T05:05:58;1.65;;;0.60;;
76107;SDS011;64834;52.516;10.528;2023-04-24T05:08:23;1.40;;;0.60;;
76107;SDS011;64834;52.516;10.528;2023-04-24T05:10:48;1.77;;;0.68;;
76107;SDS011;64834;52.516;10.528;2023-04-24T05:13:14;1.85;;;0.65;;
76107;SDS011;64834;52.516;10.528;2023-04-24T05:15:39;2.47;;;0.50;;
76107;SDS011;64834;52.516;10.528;2023-04-24T05:18:05;1.27;;;0.50;;
76107;SDS011;64834;52.516;10.528;2023-04-24T05:20:30;1.23;;;0.60;;
76107;SDS011;64834;52.516;10.528;2023-04-24T05:22:55;1.63;;;0.52;;
76107;SDS011;64834;52.516;10.528;2023-04-24T05:25:21;1.35;;;0.60;;
76107;SDS011;64834;52.516;10.528;2023-04-24T05:27:46;1.00;;;0.50;;
76107;SDS011;64834;52.516;10.528;2023-04-24T05:30:12;1.05;;;0.52;;
76107;SDS011;64834;52.516;10.528;2023-04-24T05:32:37;2.65;;;0.55;;
76107;SDS011;64834;52.516;10.528;2023-04-24T05:35:03;1.65;;;0.63;;
76107;SDS011;64834;52.516;10.528;2023-04-24T05:37:28;1.30;;;0.60;;
76107;SDS011;64834;52.516;10.528;2023-04-24T05:39:54;1.05;;;0.50;;
76107;SDS011;64834;52.516;10.528;2023-04-24T05:42:19;2.20;;;0.60;;
76107;SDS011;64834;52.516;10.528;2023-04-24T05:44:45;1.45;;;0.85;;
76107;SDS011;64834;52.516;10.528;2023-04-24T05:47:10;1.45;;;0.43;;
76107;SDS011;64834;52.516;10.528;2023-04-24T05:49:35;1.17;;;0.52;;
76107;SDS011;64834;52.516;10.528;2023-04-24T05:52:01;3.65;;;0.60;;
76107;SDS011;64834;52.516;10.528;2023-04-24T05:54:26;4.38;;;0.90;;
76107;SDS011;64834;52.516;10.528;2023-04-24T05:56:51;1.90;;;0.45;;
76107;SDS011;64834;52.516;10.528;2023-04-24T05:59:16;1.48;;;0.55;;
76107;SDS011;64834;52.516;10.528;2023-04-24T06:01:42;1.48;;;0.80;;
76107;SDS011;64834;52.516;10.528;2023-04-24T06:04:07;1.50;;;0.68;;
76107;SDS011;64834;52.516;10.528;2023-04-24T06:06:32;2.20;;;0.73;;
76107;SDS011;64834;52.516;10.528;2023-04-24T06:08:58;2.22;;;0.73;;
76107;SDS011;64834;52.516;10.528;2023-04-24T06:11:26;2.88;;;0.80;;
76107;SDS011;64834;52.516;10.528;2023-04-24T06:13:52;1.80;;;0.88;;
76107;SDS011;64834;52.516;10.528;2023-04-24T06:16:17;2.88;;;1.58;;
76107;SDS011;64834;52.516;10.528;2023-04-24T06:18:42;2.35;;;1.00;;
76107;SDS011;64834;52.516;10.528;2023-04-24T06:21:08;2.55;;;1.00;;
76107;SDS011;64834;52.516;10.528;2023-04-24T06:23:33;1.95;;;0.70;;
76107;SDS011;64834;52.516;10.528;2023-04-24T06:25:59;1.77;;;0.95;;
76107;SDS011;64834;52.516;10.528;2023-04-24T06:28:25;2.53;;;1.05;;
76107;SDS011;64834;52.516;10.528;2023-04-24T06:30:51;2.33;;;0.82;;
76107;SDS011;64834;52.516;10.528;2023-04-24T06:33:16;2.45;;;1.13;;
76107;SDS011;64834;52.516;10.528;2023-04-24T06:35:42;2.10;;;0.80;;
76107;SDS011;64834;52.516;10.528;2023-04-24T06:38:07;1.40;;;0.80;;
76107;SDS011;64834;52.516;10.528;2023-04-24T06:40:32;1.70;;;0.70;;
76107;SDS011;64834;52.516;10.528;2023-04-24T06:42:58;1.70;;;0.82;;
76107;SDS011;64834;52.516;10.528;2023-04-24T06:45:25;1.13;;;0.55;;
76107;SDS011;64834;52.516;10.528;2023-04-24T06:47:50;1.33;;;0.65;;
76107;SDS011;64834;52.516;10.528;2023-04-24T06:50:16;1.60;;;0.90;;
76107;SDS011;64834;52.516;10.528;2023-04-24T06:52:41;2.17;;;0.50;;
76107;SDS011;64834;52.516;10.528;2023-04-24T06:55:07;1.10;;;0.65;;
76107;SDS011;64834;52.516;10.528;2023-04-24T06:57:32;1.13;;;0.40;;
76107;SDS011;64834;52.516;10.528;2023-04-24T06:59:58;1.30;;;0.40;;
76107;SDS011;64834;52.516;10.528;2023-04-24T07:02:24;1.00;;;0.50;;
76107;SDS011;64834;52.516;10.528;2023-04-24T07:04:50;1.15;;;0.52;;
76107;SDS011;64834;52.516;10.528;2023-04-24T07:07:15;0.75;;;0.38;;
76107;SDS011;64834;52.516;10.528;2023-04-24T07:09:41;1.10;;;0.38;;
76107;SDS011;64834;52.516;10.528;2023-04-24T07:12:10;1.58;;;0.50;;
76107;SDS011;64834;52.516;10.528;2023-04-24T07:14:36;1.58;;;0.40;;
76107;SDS011;64834;52.516;10.528;2023-04-24T07:17:02;0.95;;;0.50;;
76107;SDS011;64834;52.516;10.528;2023-04-24T07:19:28;2.00;;;0.30;;
76107;SDS011;64834;52.516;10.528;2023-04-24T07:21:54;0.80;;;0.43;;
76107;SDS011;64834;52.516;10.528;2023-04-24T07:24:20;0.90;;;0.40;;
76107;SDS011;64834;52.516;10.528;2023-04-24T07:26:45;1.20;;;0.50;;
76107;SDS011;64834;52.516;10.528;2023-04-24T07:29:11;0.93;;;0.38;;
76107;SDS011;64834;52.516;10.528;2023-04-24T07:31:37;0.70;;;0.20;;
76107;SDS011;64834;52.516;10.528;2023-04-24T07:34:02;2.83;;;0.30;;
76107;SDS011;64834;52.516;10.528;2023-04-24T07:36:28;1.83;;;0.68;;
76107;SDS011;64834;52.516;10.528;2023-04-24T07:38:53;2.08;;;0.60;;
76107;SDS011;64834;52.516;10.528;2023-04-24T07:41:19;1.30;;;0.70;;
76107;SDS011;64834;52.516;10.528;2023-04-24T07:43:46;1.80;;;1.08;;
76107;SDS011;64834;52.516;10.528;2023-04-24T07:46:11;1.50;;;0.85;;
76107;SDS011;64834;52.516;10.528;2023-04-24T07:48:37;2.67;;;1.27;;
76107;SDS011;64834;52.516;10.528;2023-04-24T07:51:02;1.90;;;1.30;;
76107;SDS011;64834;52.516;10.528;2023-04-24T07:53:27;2.45;;;1.40;;
76107;SDS011;64834;52.516;10.528;2023-04-24T07:55:54;2.97;;;1.60;;
76107;SDS011;64834;52.516;10.528;2023-04-24T07:58:20;2.17;;;1.20;;
76107;SDS011;64834;52.516;10.528;2023-04-24T08:00:46;1.88;;;1.15;;
76107;SDS011;64834;52.516;10.528;2023-04-24T08:03:11;3.03;;;1.50;;
76107;SDS011;64834;52.516;10.528;2023-04-24T08:05:37;2.40;;;1.30;;
76107;SDS011;64834;52.516;10.528;2023-04-24T08:08:02;3.05;;;1.60;;
76107;SDS011;64834;52.516;10.528;2023-04-24T08:10:28;2.17;;;1.52;;
76107;SDS011;64834;52.516;10.528;2023-04-24T08:12:53;3.17;;;1.67;;
76107;SDS011;64834;52.516;10.528;2023-04-24T08:15:20;2.83;;;1.58;;
76107;SDS011;64834;52.516;10.528;2023-04-24T08:17:45;2.85;;;1.35;;
76107;SDS011;64834;52.516;10.528;2023-04-24T08:20:11;2.15;;;1.40;;
76107;SDS011;64834;52.516;10.528;2023-04-24T08:22:40;2.95;;;1.95;;
76107;SDS011;64834;52.516;10.528;2023-04-24T08:25:06;2.17;;;1.30;;
76107;SDS011;64834;52.516;10.528;2023-04-24T08:27:32;2.55;;;1.25;;
76107;SDS011;64834;52.516;10.528;2023-04-24T08:29:58;2.83;;;1.23;;
76107;SDS011;64834;52.516;10.528;2023-04-24T08:32:25;3.80;;;1.45;;
76107;SDS011;64834;52.516;10.528;2023-04-24T08:34:53;3.42;;;1.92;;
76107;SDS011;64834;52.516;10.528;2023-04-24T08:37:21;2.47;;;1.33;;
76107;SDS011;64834;52.516;10.528;2023-04-24T08:39:47;5.40;;;2.00;;
76107;SDS011;64834;52.516;10.528;2023-04-24T08:42:12;2.88;;;1.95;;
76107;SDS011;64834;52.516;10.528;2023-04-24T08:44:38;3.88;;;2.53;;
76107;SDS011;64834;52.516;10.528;2023-04-24T08:47:03;4.20;;;2.88;;
76107;SDS011;64834;52.516;10.528;2023-04-24T08:49:30;4.82;;;2.90;;
76107;SDS011;64834;52.516;10.528;2023-04-24T08:51:56;4.95;;;2.60;;
76107;SDS011;64834;52.516;10.528;2023-04-24T08:54:21;3.92;;;1.90;;
76107;SDS011;64834;52.516;10.528;2023-04-24T08:56:47;6.40;;;2.55;;
76107;SDS011;64834;52.516;10.528;2023-04-24T08:59:14;4.88;;;3.25;;
76107;SDS011;64834;52.516;10.528;2023-04-24T09:01:40;4.88;;;3.15;;
76107;SDS011;64834;52.516;10.528;2023-04-24T09:04:06;6.65;;;3.63;;
76107;SDS011;64834;52.516;10.528;2023-04-24T09:06:35;5.40;;;3.55;;
76107;SDS011;64834;52.516;10.528;2023-04-24T09:09:01;4.57;;;3.00;;
76107;SDS011;64834;52.516;10.528;2023-04-24T09:11:27;5.03;;;3.15;;
76107;SDS011;64834;52.516;10.528;2023-04-24T09:13:53;5.50;;;3.00;;
76107;SDS011;64834;52.516;10.528;2023-04-24T09:16:19;3.22;;;1.98;;
76107;SDS011;64834;52.516;10.528;2023-04-24T09:18:45;4.53;;;2.55;;
76107;SDS011;64834;52.516;10.528;2023-04-24T09:21:10;4.25;;;3.03;;
76107;SDS011;64834;52.516;10.528;2023-04-24T09:23:36;4.40;;;2.97;;
76107;SDS011;64834;52.516;10.528;2023-04-24T09:26:02;5.30;;;3.53;;
76107;SDS011;64834;52.516;10.528;2023-04-24T09:28:31;5.07;;;3.20;;
76107;SDS011;64834;52.516;10.528;2023-04-24T09:33:33;4.90;;;3.20;;
76107;SDS011;64834;52.516;10.528;2023-04-24T09:35:59;4.32;;;2.58;;
76107;SDS011;64834;52.516;10.528;2023-04-24T09:38:32;5.10;;;2.67;;
76107;SDS011;64834;52.516;10.528;2023-04-24T09:41:00;4.82;;;3.17;;
76107;SDS011;64834;52.516;10.528;2023-04-24T09:43:28;5.50;;;3.05;;
76107;SDS011;64834;52.516;10.528;2023-04-24T09:45:55;4.07;;;2.38;;
76107;SDS011;64834;52.516;10.528;2023-04-24T09:48:31;5.88;;;2.95;;
76107;SDS011;64834;52.516;10.528;2023-04-24T09:50:58;5.55;;;3.47;;
76107;SDS011;64834;52.516;10.528;2023-04-24T09:53:27;3.75;;;2.05;;
76107;SDS011;64834;52.516;10.528;2023-04-24T09:55:52;5.10;;;3.17;;
76107;SDS011;64834;52.516;10.528;2023-04-24T09:58:18;4.63;;;2.53;;
76107;SDS011;64834;52.516;10.528;2023-04-24T10:00:50;4.20;;;2.97;;
76107;SDS011;64834;52.516;10.528;2023-04-24T10:03:18;6.45;;;3.67;;
76107;SDS011;64834;52.516;10.528;2023-04-24T10:05:44;4.35;;;2.92;;
76107;SDS011;64834;52.516;10.528;2023-04-24T10:08:11;5.13;;;3.30;;
76107;SDS011;64834;52.516;10.528;2023-04-24T10:10:41;4.55;;;3.05;;
76107;SDS011;64834;52.516;10.528;2023-04-24T10:13:09;4.55;;;2.67;;
76107;SDS011;64834;52.516;10.528;2023-04-24T10:15:35;5.90;;;3.13;;
76107;SDS011;64834;52.516;10.528;2023-04-24T10:18:02;5.20;;;2.95;;
76107;SDS011;64834;52.516;10.528;2023-04-24T10:20:30;4.72;;;3.15;;
76107;SDS011;64834;52.516;10.528;2023-04-24T10:22:56;5.43;;;3.28;;
76107;SDS011;64834;52.516;10.528;2023-04-24T10:25:23;5.80;;;3.28;;
76107;SDS011;64834;52.516;10.528;2023-04-24T10:27:51;4.57;;;3.35;;
76107;SDS011;64834;52.516;10.528;2023-04-24T10:30:17;8.70;;;3.55;;
76107;SDS011;64834;52.516;10.528;2023-04-24T10:32:44;5.57;;;3.75;;
76107;SDS011;64834;52.516;10.528;2023-04-24T10:35:10;3.97;;;2.30;;
76107;SDS011;64834;52.516;10.528;2023-04-24T10:37:39;6.72;;;3.67;;
76107;SDS011;64834;52.516;10.528;2023-04-24T10:40:08;4.68;;;3.42;;
76107;SDS011;64834;52.516;10.528;2023-04-24T10:42:34;6.90;;;3.17;;
76107;SDS011;64834;52.516;10.528;2023-04-24T10:45:04;4.93;;;3.00;;
76107;SDS011;64834;52.516;10.528;2023-04-24T10:47:39;4.45;;;3.00;;
76107;SDS011;64834;52.516;10.528;2023-04-24T10:50:14;4.40;;;2.67;;
76107;SDS011;64834;52.516;10.528;2023-04-24T10:52:43;3.50;;;2.60;;
76107;SDS011;64834;52.516;10.528;2023-04-24T10:55:10;4.88;;;2.28;;
76107;SDS011;64834;52.516;10.528;2023-04-24T10:57:38;3.83;;;2.35;;
76107;SDS011;64834;52.516;10.528;2023-04-24T11:00:18;3.30;;;2.20;;
76107;SDS011;64834;52.516;10.528;2023-04-24T11:02:45;2.55;;;1.70;;
76107;SDS011;64834;52.516;10.528;2023-04-24T11:05:17;4.80;;;1.48;;
76107;SDS011;64834;52.516;10.528;2023-04-24T11:10:47;3.22;;;2.00;;
76107;SDS011;64834;52.516;10.528;2023-04-24T11:13:21;2.63;;;1.40;;
76107;SDS011;64834;52.516;10.528;2023-04-24T11:19:00;3.97;;;1.52;;
76107;SDS011;64834;52.516;10.528;2023-04-24T11:21:38;1.98;;;1.20;;
76107;SDS011;64834;52.516;10.528;2023-04-24T11:26:56;2.20;;;1.17;;
76107;SDS011;64834;52.516;10.528;2023-04-24T11:29:38;1.88;;;1.17;;
76107;SDS011;64834;52.516;10.528;2023-04-24T11:34:48;4.10;;;1.38;;
76107;SDS011;64834;52.516;10.528;2023-04-24T11:37:17;3.63;;;1.10;;
76107;SDS011;64834;52.516;10.528;2023-04-24T11:39:43;2.15;;;1.25;;
76107;SDS011;64834;52.516;10.528;2023-04-24T11:42:08;2.40;;;1.25;;
76107;SDS011;64834;52.516;10.528;2023-04-24T11:44:34;3.45;;;1.30;;
76107;SDS011;64834;52.516;10.528;2023-04-24T11:47:04;3.72;;;1.75;;
76107;SDS011;64834;52.516;10.528;2023-04-24T11:49:30;2.15;;;1.08;;
76107;SDS011;64834;52.516;10.528;2023-04-24T11:51:56;2.13;;;1.25;;
76107;SDS011;64834;52.516;10.528;2023-04-24T11:54:21;2.80;;;1.40;;
76107;SDS011;64834;52.516;10.528;2023-04-24T11:56:47;3.42;;;1.40;;
76107;SDS011;64834;52.516;10.528;2023-04-24T11:59:13;4.68;;;1.50;;
76107;SDS011;64834;52.516;10.528;2023-04-24T12:01:42;1.90;;;1.05;;
76107;SDS011;64834;52.516;10.528;2023-04-24T12:04:11;3.50;;;1.50;;
76107;SDS011;64834;52.516;10.528;2023-04-24T12:06:36;2.33;;;1.00;;
76107;SDS011;64834;52.516;10.528;2023-04-24T12:09:02;2.10;;;1.25;;
76107;SDS011;64834;52.516;10.528;2023-04-24T12:11:27;2.00;;;1.30;;
76107;SDS011;64834;52.516;10.528;2023-04-24T12:13:53;1.40;;;0.73;;
76107;SDS011;64834;52.516;10.528;2023-04-24T12:16:18;1.85;;;1.10;;
76107;SDS011;64834;52.516;10.528;2023-04-24T12:18:44;3.65;;;1.05;;
76107;SDS011;64834;52.516;10.528;2023-04-24T12:21:20;2.53;;;1.20;;
76107;SDS011;64834;52.516;10.528;2023-04-24T12:23:47;2.97;;;1.50;;
76107;SDS011;64834;52.516;10.528;2023-04-24T12:26:17;1.92;;;1.20;;
76107;SDS011;64834;52.516;10.528;2023-04-24T12:28:45;2.22;;;1.30;;
76107;SDS011;64834;52.516;10.528;2023-04-24T12:31:12;2.40;;;1.13;;
76107;SDS011;64834;52.516;10.528;2023-04-24T12:33:37;2.88;;;1.25;;
76107;SDS011;64834;52.516;10.528;2023-04-24T12:36:03;2.10;;;1.20;;
76107;SDS011;64834;52.516;10.528;2023-04-24T12:38:30;1.98;;;1.13;;
76107;SDS011;64834;52.516;10.528;2023-04-24T12:41:06;2.05;;;1.00;;
76107;SDS011;64834;52.516;10.528;2023-04-24T12:43:32;3.28;;;1.77;;
76107;SDS011;64834;52.516;10.528;2023-04-24T12:45:58;2.67;;;1.50;;
76107;SDS011;64834;52.516;10.528;2023-04-24T12:48:24;2.30;;;1.30;;
76107;SDS011;64834;52.516;10.528;2023-04-24T12:50:50;2.63;;;1.95;;
76107;SDS011;64834;52.516;10.528;2023-04-24T12:53:15;1.90;;;1.33;;
76107;SDS011;64834;52.516;10.528;2023-04-24T12:55:41;1.92;;;1.40;;
76107;SDS011;64834;52.516;10.528;2023-04-24T12:58:06;1.80;;;1.13;;
76107;SDS011;64834;52.516;10.528;2023-04-24T13:00:32;1.98;;;1.05;;
76107;SDS011;64834;52.516;10.528;2023-04-24T13:02:57;1.83;;;0.70;;
76107;SDS011;64834;52.516;10.528;2023-04-24T13:05:23;1.35;;;0.80;;
76107;SDS011;64834;52.516;10.528;2023-04-24T13:07:48;1.52;;;0.77;;
76107;SDS011;64834;52.516;10.528;2023-04-24T13:10:13;2.00;;;0.88;;
76107;SDS011;64834;52.516;10.528;2023-04-24T13:12:39;1.50;;;0.95;;
76107;SDS011;64834;52.516;10.528;2023-04-24T13:15:05;1.40;;;0.90;;
76107;SDS011;64834;52.516;10.528;2023-04-24T13:17:31;1.73;;;1.05;;
76107;SDS011;64834;52.516;10.528;2023-04-24T13:19:56;1.90;;;1.00;;
76107;SDS011;64834;52.516;10.528;2023-04-24T13:22:22;1.75;;;1.20;;
76107;SDS011;64834;52.516;10.528;2023-04-24T13:24:47;2.10;;;1.17;;
76107;SDS011;64834;52.516;10.528;2023-04-24T13:27:16;2.47;;;1.02;;
76107;SDS011;64834;52.516;10.528;2023-04-24T13:29:42;1.00;;;0.65;;
76107;SDS011;64834;52.516;10.528;2023-04-24T13:32:08;0.80;;;0.38;;
76107;SDS011;64834;52.516;10.528;2023-04-24T13:34:34;0.88;;;0.45;;
76107;SDS011;64834;52.516;10.528;2023-04-24T13:36:59;0.82;;;0.30;;
76107;SDS011;64834;52.516;10.528;2023-04-24T13:39:25;0.90;;;0.38;;
76107;SDS011;64834;52.516;10.528;2023-04-24T13:41:51;1.05;;;0.50;;
76107;SDS011;64834;52.516;10.528;2023-04-24T13:44:18;0.73;;;0.40;;
76107;SDS011;64834;52.516;10.528;2023-04-24T13:46:44;0.98;;;0.43;;
76107;SDS011;64834;52.516;10.528;2023-04-24T13:49:12;1.30;;;0.55;;
76107;SDS011;64834;52.516;10.528;2023-04-24T13:51:38;2.08;;;0.73;;
76107;SDS011;64834;52.516;10.528;2023-04-24T13:54:03;1.55;;;0.90;;
76107;SDS011;64834;52.516;10.528;2023-04-24T13:56:29;1.92;;;1.20;;
76107;SDS011;64834;52.516;10.528;2023-04-24T13:58:54;1.95;;;1.27;;
76107;SDS011;64834;52.516;10.528;2023-04-24T14:01:19;1.73;;;1.13;;
76107;SDS011;64834;52.516;10.528;2023-04-24T14:03:49;2.45;;;1.42;;
76107;SDS011;64834;52.516;10.528;2023-04-24T14:06:14;2.00;;;1.15;;
76107;SDS011;64834;52.516;10.528;2023-04-24T14:08:40;3.08;;;1.70;;
76107;SDS011;64834;52.516;10.528;2023-04-24T14:11:05;2.60;;;1.23;;
76107;SDS011;64834;52.516;10.528;2023-04-24T14:13:30;2.70;;;1.35;;
76107;SDS011;64834;52.516;10.528;2023-04-24T14:15:56;1.70;;;0.93;;
76107;SDS011;64834;52.516;10.528;2023-04-24T14:18:21;1.98;;;0.95;;
76107;SDS011;64834;52.516;10.528;2023-04-24T14:20:47;1.90;;;1.10;;
76107;SDS011;64834;52.516;10.528;2023-04-24T14:23:12;2.42;;;1.42;;
76107;SDS011;64834;52.516;10.528;2023-04-24T14:25:37;2.17;;;0.73;;
76107;SDS011;64834;52.516;10.528;2023-04-24T14:28:02;1.38;;;0.90;;
76107;SDS011;64834;52.516;10.528;2023-04-24T14:30:28;1.70;;;0.60;;
76107;SDS011;64834;52.516;10.528;2023-04-24T14:32:53;1.10;;;0.55;;
76107;SDS011;64834;52.516;10.528;2023-04-24T14:35:18;1.35;;;0.50;;
76107;SDS011;64834;52.516;10.528;2023-04-24T14:37:44;0.93;;;0.55;;
76107;SDS011;64834;52.516;10.528;2023-04-24T14:40:09;1.50;;;0.82;;
76107;SDS011;64834;52.516;10.528;2023-04-24T14:42:35;1.67;;;0.70;;
76107;SDS011;64834;52.516;10.528;2023-04-24T14:45:01;0.43;;;0.20;;